Terminal Aerodrome Forecast
Issued by NWS

Home | Current Version | Previous Version | Text Only | Print | Product List | Glossary On
Versions: 1 2 3 4 5 6 7 8 9 10 11 12 13 14 15 16
066
FTUS43 KIWX 221120
TAFSBN
TAF
KSBN 221120Z 2212/2312 24010G20KT 5SM SHRA BKN010 OVC090
     FM221400 24011G21KT P6SM VCSH SCT020 OVC050
      TEMPO 2214/2216 BKN020
     FM221600 28013G23KT P6SM BKN035
     FM222100 29014G22KT P6SM SCT080
     FM230300 29009KT P6SM FEW200
     FM230600 29004KT P6SM SKC=

USA.gov is the U.S. government's official web portal to all federal, state and local government web resources and services.